Time;durP1;ratioP1;P1;durP2;ratioP2;P2;SDS_P1;SDS_P2;PMS_P1;PMS_P2;Temp;Humidity;BMP_temperature;BMP_pressure;BME280_temperature;BME280_humidity;BME280_pressure;Samples;Min_cycle;Max_cycle;Signal;HPM_P1;HPM_P2
2021/12/08 00:02:20;;;;;;;;;;;20.40;38.90;;;;;;5072333;28;19963;-63
2021/12/08 00:04:45;;;;;;;;;;;20.40;38.80;;;;;;5073888;28;19912;-63
2021/12/08 00:07:11;;;;;;;;;;;20.40;38.90;;;;;;5063257;28;19951;-64
2021/12/08 00:14:55;;;;;;;;;;;20.30;38.90;;;;;;5073742;28;19928;-63
2021/12/08 00:17:20;;;;;;;;;;;20.30;38.90;;;;;;5075491;28;20283;-64
2021/12/08 00:19:46;;;;;;;;;;;20.30;39.00;;;;;;5071994;28;19969;-64
2021/12/08 00:22:11;;;;;;;;;;;20.30;38.90;;;;;;5069813;28;19939;-63
2021/12/08 00:24:37;;;;;;;;;;;20.30;39.00;;;;;;5072281;28;19932;-63
2021/12/08 00:27:02;;;;;;;;;;;20.20;39.00;;;;;;5087709;28;19912;-63
2021/12/08 00:29:28;;;;;;;;;;;20.20;39.10;;;;;;5073334;28;19916;-64
2021/12/08 00:31:53;;;;;;;;;;;20.20;38.80;;;;;;5072387;28;19927;-63
2021/12/08 00:34:19;;;;;;;;;;;20.20;38.90;;;;;;5072116;28;19970;-64
2021/12/08 00:36:48;;;;;;;;;;;20.20;38.80;;;;;;5073467;28;20394;-63
2021/12/08 00:39:14;;;;;;;;;;;20.20;39.00;;;;;;5087745;28;19920;-63
2021/12/08 00:41:40;;;;;;;;;;;20.20;38.90;;;;;;5074021;28;20399;-64
2021/12/08 00:44:05;;;;;;;;;;;20.10;39.00;;;;;;5074536;28;19913;-63
2021/12/08 00:46:31;;;;;;;;;;;20.10;38.90;;;;;;5073779;28;19919;-63
2021/12/08 00:48:56;;;;;;;;;;;20.10;38.90;;;;;;5077240;28;19919;-63
2021/12/08 00:51:22;;;;;;;;;;;20.10;39.00;;;;;;5075621;28;19913;-63
2021/12/08 00:53:47;;;;;;;;;;;20.10;38.90;;;;;;5075305;28;20050;-63
2021/12/08 00:56:13;;;;;;;;;;;20.10;38.90;;;;;;5077799;28;20399;-63
2021/12/08 00:58:38;;;;;;;;;;;20.10;39.00;;;;;;5073104;28;19916;-63
2021/12/08 01:01:04;;;;;;;;;;;20.00;39.00;;;;;;5079270;28;20007;-63
2021/12/08 01:03:29;;;;;;;;;;;20.00;38.80;;;;;;5076811;28;19919;-63
2021/12/08 01:05:55;;;;;;;;;;;20.00;39.00;;;;;;5076761;28;19913;-63
2021/12/08 01:08:21;;;;;;;;;;;20.00;39.00;;;;;;5060640;28;20337;-63
2021/12/08 01:10:47;;;;;;;;;;;20.00;39.00;;;;;;5077121;28;19912;-63
2021/12/08 01:13:13;;;;;;;;;;;20.00;39.00;;;;;;5073340;28;23268;-63
2021/12/08 01:15:39;;;;;;;;;;;20.00;39.00;;;;;;5090368;28;19950;-63
2021/12/08 01:18:04;;;;;;;;;;;20.00;39.00;;;;;;5076777;28;19920;-63
2021/12/08 01:20:30;;;;;;;;;;;20.00;38.80;;;;;;5076773;28;19913;-63
2021/12/08 01:22:55;;;;;;;;;;;20.00;38.90;;;;;;5082371;28;19919;-63
2021/12/08 01:25:20;;;;;;;;;;;20.00;38.90;;;;;;5093290;28;19995;-63
2021/12/08 01:27:46;;;;;;;;;;;19.90;38.90;;;;;;5087412;28;19912;-63
2021/12/08 01:30:11;;;;;;;;;;;19.90;38.90;;;;;;5095499;28;19958;-63
2021/12/08 01:32:37;;;;;;;;;;;19.90;38.90;;;;;;5093275;28;19950;-63
2021/12/08 01:35:04;;;;;;;;;;;19.90;39.00;;;;;;5094044;28;19964;-63
2021/12/08 01:37:29;;;;;;;;;;;19.90;38.90;;;;;;5094135;28;19912;-63
2021/12/08 01:39:55;;;;;;;;;;;19.90;39.00;;;;;;5094200;28;19930;-63
2021/12/08 01:42:29;;;;;;;;;;;19.90;39.50;;;;;;5088636;28;20003;-63
2021/12/08 01:47:39;;;;;;;;;;;19.80;38.80;;;;;;5085301;28;19954;-63
2021/12/08 01:50:04;;;;;;;;;;;19.80;38.80;;;;;;5082528;28;19951;-63
2021/12/08 01:52:30;;;;;;;;;;;19.80;38.80;;;;;;5075164;28;19912;-63
2021/12/08 01:54:55;;;;;;;;;;;19.80;38.80;;;;;;5073443;28;19913;-64
2021/12/08 01:57:21;;;;;;;;;;;19.80;38.80;;;;;;5073063;28;19954;-63
2021/12/08 01:59:46;;;;;;;;;;;19.80;38.90;;;;;;5075295;28;19909;-63
2021/12/08 02:02:12;;;;;;;;;;;19.80;38.80;;;;;;5075346;28;19913;-63
2021/12/08 02:04:37;;;;;;;;;;;19.80;38.80;;;;;;5099168;28;19916;-63
2021/12/08 02:07:03;;;;;;;;;;;19.80;38.80;;;;;;5082778;28;19995;-64
2021/12/08 02:09:28;;;;;;;;;;;19.80;38.80;;;;;;5069423;28;19916;-63
2021/12/08 02:11:56;;;;;;;;;;;19.80;39.00;;;;;;5091281;28;19950;-63
2021/12/08 02:14:21;;;;;;;;;;;19.80;38.80;;;;;;5106333;28;19916;-63
2021/12/08 02:16:47;;;;;;;;;;;19.70;38.80;;;;;;5091214;28;19916;-63
2021/12/08 02:19:13;;;;;;;;;;;19.70;38.80;;;;;;5096411;28;20005;-63
2021/12/08 02:21:39;;;;;;;;;;;19.70;39.00;;;;;;5057402;28;19963;-63
2021/12/08 02:24:05;;;;;;;;;;;19.70;38.90;;;;;;5073019;28;20438;-63
2021/12/08 02:26:31;;;;;;;;;;;19.70;38.90;;;;;;5077244;28;19959;-61
2021/12/08 02:28:57;;;;;;;;;;;19.70;38.80;;;;;;5073285;28;19913;-63
2021/12/08 02:31:34;;;;;;;;;;;19.90;38.50;;;;;;5072560;28;19912;-63
2021/12/08 02:47:53;;;;;;;;;;;21.10;36.40;;;;;;5073788;28;19958;-63
2021/12/08 02:50:28;;;;;;;;;;;21.30;36.30;;;;;;5079584;28;20376;-63
2021/12/08 02:52:54;;;;;;;;;;;21.40;35.90;;;;;;5084785;28;20467;-63
2021/12/08 02:55:19;;;;;;;;;;;21.50;35.80;;;;;;5089985;28;19912;-63
2021/12/08 02:57:45;;;;;;;;;;;21.60;35.60;;;;;;5078370;28;20402;-63
2021/12/08 03:00:11;;;;;;;;;;;21.70;35.50;;;;;;5093517;28;20367;-63
2021/12/08 03:02:36;;;;;;;;;;;21.70;35.30;;;;;;5081010;28;19919;-63
2021/12/08 03:05:02;;;;;;;;;;;21.80;35.20;;;;;;5086466;28;19908;-63
2021/12/08 03:07:28;;;;;;;;;;;21.80;35.10;;;;;;5085682;28;19912;-63
2021/12/08 03:09:53;;;;;;;;;;;21.90;35.00;;;;;;5082861;28;19916;-63
2021/12/08 03:12:28;;;;;;;;;;;21.90;35.00;;;;;;5072179;28;20320;-63
2021/12/08 03:14:53;;;;;;;;;;;21.90;35.00;;;;;;5074549;28;19924;-63
2021/12/08 03:17:19;;;;;;;;;;;21.90;35.10;;;;;;5091717;28;20444;-63
2021/12/08 03:19:44;;;;;;;;;;;21.90;35.00;;;;;;5079763;28;19956;-63
2021/12/08 03:22:11;;;;;;;;;;;21.90;35.00;;;;;;5071685;28;20361;-64
2021/12/08 03:24:39;;;;;;;;;;;21.80;34.90;;;;;;5081842;28;19961;-63
2021/12/08 03:27:14;;;;;;;;;;;21.80;35.00;;;;;;5087069;28;19951;-63
2021/12/08 03:29:48;;;;;;;;;;;21.80;35.00;;;;;;5076633;28;19920;-63
2021/12/08 03:32:16;;;;;;;;;;;21.80;35.10;;;;;;5085461;28;20582;-63
2021/12/08 03:34:51;;;;;;;;;;;21.80;35.10;;;;;;5073368;28;20300;-63
2021/12/08 03:37:18;;;;;;;;;;;21.80;35.30;;;;;;5099863;28;20451;-63
2021/12/08 03:39:43;;;;;;;;;;;21.80;35.20;;;;;;5080235;28;19946;-63
2021/12/08 03:42:09;;;;;;;;;;;21.80;35.20;;;;;;5088648;28;19920;-63
2021/12/08 03:44:36;;;;;;;;;;;21.70;35.20;;;;;;5090840;28;20402;-63
2021/12/08 03:47:02;;;;;;;;;;;21.70;35.20;;;;;;5086950;28;19915;-63
2021/12/08 03:49:28;;;;;;;;;;;21.70;35.20;;;;;;5088627;28;19957;-63
2021/12/08 03:52:02;;;;;;;;;;;21.70;35.10;;;;;;5095788;28;19923;-63
2021/12/08 03:54:27;;;;;;;;;;;21.80;35.10;;;;;;5070805;28;19923;-63
2021/12/08 03:56:53;;;;;;;;;;;21.70;35.00;;;;;;5072128;28;19912;-63
2021/12/08 03:59:18;;;;;;;;;;;21.70;34.90;;;;;;5070713;28;19927;-64
2021/12/08 04:01:43;;;;;;;;;;;21.80;35.00;;;;;;5093602;28;19927;-63
2021/12/08 04:04:10;;;;;;;;;;;21.70;34.90;;;;;;5093738;28;19915;-63
2021/12/08 04:06:51;;;;;;;;;;;21.80;34.90;;;;;;5072374;28;19955;-63
2021/12/08 04:09:34;;;;;;;;;;;21.80;34.90;;;;;;5076800;28;20025;-63
2021/12/08 04:12:00;;;;;;;;;;;21.70;34.90;;;;;;5091259;28;19938;-63
2021/12/08 04:14:27;;;;;;;;;;;21.70;34.90;;;;;;5091588;28;20376;-63
2021/12/08 04:16:54;;;;;;;;;;;21.70;34.90;;;;;;5077767;28;19918;-63
2021/12/08 04:19:19;;;;;;;;;;;21.70;34.90;;;;;;5069938;28;20315;-63
2021/12/08 04:21:45;;;;;;;;;;;21.70;34.90;;;;;;5075485;28;19927;-63
2021/12/08 04:24:12;;;;;;;;;;;21.70;34.90;;;;;;5070610;28;19991;-64
2021/12/08 04:26:42;;;;;;;;;;;21.70;34.90;;;;;;5072600;28;19958;-63
2021/12/08 04:29:08;;;;;;;;;;;21.70;34.90;;;;;;5079616;28;19973;-63
2021/12/08 04:31:34;;;;;;;;;;;21.80;34.90;;;;;;5085211;28;19923;-63
2021/12/08 04:34:02;;;;;;;;;;;21.70;34.90;;;;;;5078932;28;19917;-63
2021/12/08 04:36:32;;;;;;;;;;;21.60;35.10;;;;;;5078403;28;20259;-63
2021/12/08 04:38:59;;;;;;;;;;;21.50;35.40;;;;;;5070396;28;19959;-63
2021/12/08 04:41:31;;;;;;;;;;;21.40;35.50;;;;;;5074445;28;19912;-64
2021/12/08 04:44:08;;;;;;;;;;;21.30;35.60;;;;;;5080741;28;20355;-63
2021/12/08 04:52:15;;;;;;;;;;;21.30;35.70;;;;;;5072219;28;19966;-63
2021/12/08 05:03:06;;;;;;;;;;;21.60;35.40;;;;;;5093820;28;20401;-63
2021/12/08 05:06:03;;;;;;;;;;;21.60;35.10;;;;;;5069380;28;19913;-63
2021/12/08 05:08:24;;;;;;;;;;;21.70;35.10;;;;;;5078761;28;20399;-64
2021/12/08 05:10:50;;;;;;;;;;;21.70;34.90;;;;;;5104312;28;19958;-63
2021/12/08 05:13:15;;;;;;;;;;;21.70;34.90;;;;;;5072369;28;19920;-63
2021/12/08 05:15:42;;;;;;;;;;;21.70;34.90;;;;;;5075419;28;20390;-64
2021/12/08 05:18:10;;;;;;;;;;;21.70;34.90;;;;;;5070173;28;19917;-64
2021/12/08 05:20:39;;;;;;;;;;;21.80;34.90;;;;;;5074072;28;19920;-63
2021/12/08 05:23:10;;;;;;;;;;;21.80;34.90;;;;;;5072679;28;19916;-63
2021/12/08 05:25:36;;;;;;;;;;;21.80;34.90;;;;;;5071593;28;19913;-63
2021/12/08 05:28:02;;;;;;;;;;;21.80;35.00;;;;;;5071292;28;20019;-63
2021/12/08 05:30:36;;;;;;;;;;;21.80;34.90;;;;;;5073508;28;20010;-63
2021/12/08 05:33:02;;;;;;;;;;;21.80;34.90;;;;;;5091553;28;19916;-63
2021/12/08 05:35:27;;;;;;;;;;;21.80;34.90;;;;;;5077617;28;19912;-63
2021/12/08 05:37:53;;;;;;;;;;;21.80;34.90;;;;;;5064663;28;19989;-63
2021/12/08 05:40:23;;;;;;;;;;;21.80;35.00;;;;;;5076989;28;19990;-64
2021/12/08 05:42:49;;;;;;;;;;;21.70;34.90;;;;;;5073021;28;19956;-64
2021/12/08 05:45:15;;;;;;;;;;;21.70;34.90;;;;;;5077320;28;20076;-64
2021/12/08 05:47:41;;;;;;;;;;;21.70;34.90;;;;;;5073171;28;19939;-63
2021/12/08 05:50:07;;;;;;;;;;;21.70;34.90;;;;;;5060067;28;19916;-64
2021/12/08 05:52:32;;;;;;;;;;;21.70;34.90;;;;;;5081363;28;19909;-63
2021/12/08 05:54:58;;;;;;;;;;;21.70;34.90;;;;;;5076635;28;19920;-63
2021/12/08 05:57:24;;;;;;;;;;;21.70;34.90;;;;;;5078311;28;19912;-63
2021/12/08 05:59:50;;;;;;;;;;;21.70;34.90;;;;;;5080354;28;20287;-63
2021/12/08 06:02:17;;;;;;;;;;;21.70;34.90;;;;;;5090165;28;19918;-64
2021/12/08 06:04:43;;;;;;;;;;;21.70;34.90;;;;;;5087738;28;19946;-63
2021/12/08 06:07:09;;;;;;;;;;;21.70;34.90;;;;;;5093864;28;20550;-63
2021/12/08 06:09:34;;;;;;;;;;;21.70;34.90;;;;;;5095131;28;20356;-63
2021/12/08 06:12:00;;;;;;;;;;;21.80;34.90;;;;;;5078170;28;20356;-63
2021/12/08 06:14:31;;;;;;;;;;;21.80;34.90;;;;;;5081603;28;19920;-63
2021/12/08 06:16:56;;;;;;;;;;;21.80;34.90;;;;;;5090497;28;19913;-62
2021/12/08 06:19:22;;;;;;;;;;;21.70;34.90;;;;;;5086745;28;19938;-63
2021/12/08 06:21:48;;;;;;;;;;;21.70;34.90;;;;;;5068729;28;19921;-63
2021/12/08 06:24:14;;;;;;;;;;;21.80;34.90;;;;;;5080816;28;19959;-64
2021/12/08 06:26:39;;;;;;;;;;;21.80;34.90;;;;;;5082115;28;19912;-64
2021/12/08 06:29:05;;;;;;;;;;;21.80;34.90;;;;;;5085750;28;19919;-63
2021/12/08 06:31:33;;;;;;;;;;;21.80;34.90;;;;;;5072663;28;20309;-63
2021/12/08 06:33:58;;;;;;;;;;;21.80;35.00;;;;;;5086535;27;20015;-63
2021/12/08 06:36:47;;;;;;;;;;;21.80;34.90;;;;;;5082108;28;20003;-63
2021/12/08 06:39:14;;;;;;;;;;;21.80;34.90;;;;;;5069207;28;19912;-63
2021/12/08 06:41:42;;;;;;;;;;;21.80;34.90;;;;;;5092014;28;19912;-63
2021/12/08 06:44:09;;;;;;;;;;;21.80;34.90;;;;;;5086232;28;19920;-63
2021/12/08 06:46:34;;;;;;;;;;;21.80;34.90;;;;;;5073421;28;19927;-63
2021/12/08 06:49:00;;;;;;;;;;;21.80;34.90;;;;;;5074530;28;20419;-63
2021/12/08 06:51:27;;;;;;;;;;;21.70;34.80;;;;;;5079986;28;19913;-63
2021/12/08 06:53:54;;;;;;;;;;;21.80;34.90;;;;;;5071749;28;19916;-64
2021/12/08 06:56:30;;;;;;;;;;;21.80;34.80;;;;;;5076839;28;19919;-63
2021/12/08 06:58:57;;;;;;;;;;;21.80;34.80;;;;;;5090525;28;19981;-63
2021/12/08 07:04:36;;;;;;;;;;;21.70;34.90;;;;;;5079403;28;19978;-63
2021/12/08 07:07:12;;;;;;;;;;;21.70;34.90;;;;;;5073544;28;19920;-63
2021/12/08 07:09:37;;;;;;;;;;;21.80;34.90;;;;;;5072587;28;20218;-64
2021/12/08 07:12:13;;;;;;;;;;;21.70;34.80;;;;;;5072712;28;19942;-63
2021/12/08 07:14:39;;;;;;;;;;;21.80;34.90;;;;;;5075122;28;19955;-63
2021/12/08 07:17:07;;;;;;;;;;;21.70;34.70;;;;;;5070882;28;19977;-64
2021/12/08 07:20:13;;;;;;;;;;;21.80;34.70;;;;;;5075327;28;19936;-63
2021/12/08 07:22:21;;;;;;;;;;;21.70;34.80;;;;;;5079333;28;20211;-63
2021/12/08 07:24:47;;;;;;;;;;;21.70;34.90;;;;;;5084879;28;19912;-63
2021/12/08 07:27:19;;;;;;;;;;;21.80;34.90;;;;;;5074919;28;20287;-63
2021/12/08 07:29:45;;;;;;;;;;;21.80;34.90;;;;;;5072985;28;19924;-63
2021/12/08 07:32:12;;;;;;;;;;;21.80;34.90;;;;;;5080179;28;20438;-63
2021/12/08 07:34:37;;;;;;;;;;;21.80;34.90;;;;;;5070367;28;20240;-63
2021/12/08 07:37:16;;;;;;;;;;;21.70;34.90;;;;;;5072273;28;20032;-63
2021/12/08 07:39:44;;;;;;;;;;;21.70;34.90;;;;;;5081535;28;19912;-63
2021/12/08 07:42:15;;;;;;;;;;;21.70;34.90;;;;;;5090152;28;19912;-63
2021/12/08 07:44:41;;;;;;;;;;;21.70;34.90;;;;;;5071296;28;19942;-63
2021/12/08 07:47:07;;;;;;;;;;;21.70;34.90;;;;;;5061881;28;19916;-63
2021/12/08 07:49:36;;;;;;;;;;;21.70;34.90;;;;;;5069743;28;19920;-63
2021/12/08 07:52:08;;;;;;;;;;;21.80;34.90;;;;;;5071974;28;20377;-63
2021/12/08 07:54:34;;;;;;;;;;;21.70;34.90;;;;;;5092552;28;20407;-63
2021/12/08 07:57:00;;;;;;;;;;;21.70;34.90;;;;;;5072365;28;19912;-63
2021/12/08 07:59:26;;;;;;;;;;;21.70;35.00;;;;;;5075730;28;19921;-63
2021/12/08 08:01:53;;;;;;;;;;;21.80;35.20;;;;;;5074587;28;19991;-64
2021/12/08 08:04:19;;;;;;;;;;;21.80;35.20;;;;;;5076345;28;19920;-63
2021/12/08 08:06:46;;;;;;;;;;;21.80;35.30;;;;;;5082719;28;19931;-63
2021/12/08 08:09:14;;;;;;;;;;;21.90;35.40;;;;;;5066820;28;20032;-64
2021/12/08 08:11:42;;;;;;;;;;;22.00;35.40;;;;;;5079744;28;19924;-64
2021/12/08 08:14:10;;;;;;;;;;;22.00;35.40;;;;;;5085875;28;20001;-63
2021/12/08 08:16:38;;;;;;;;;;;22.00;35.10;;;;;;5068058;28;21333;-64
2021/12/08 08:19:12;;;;;;;;;;;22.10;35.20;;;;;;5080176;28;20458;-64
2021/12/08 08:21:41;;;;;;;;;;;22.10;35.20;;;;;;5076655;28;19923;-64
2021/12/08 08:24:07;;;;;;;;;;;22.10;35.20;;;;;;5090371;28;19947;-64
2021/12/08 08:26:32;;;;;;;;;;;22.10;35.20;;;;;;5081249;28;19959;-63
2021/12/08 08:28:58;;;;;;;;;;;22.10;35.20;;;;;;5078607;28;19920;-63
2021/12/08 08:31:25;;;;;;;;;;;22.10;35.20;;;;;;5081203;28;19916;-63
2021/12/08 08:33:51;;;;;;;;;;;22.20;35.30;;;;;;5087805;28;19923;-64
2021/12/08 08:36:18;;;;;;;;;;;22.20;35.30;;;;;;5093457;28;19912;-63
2021/12/08 08:38:50;;;;;;;;;;;22.20;35.30;;;;;;5085017;28;20353;-63
2021/12/08 08:41:26;;;;;;;;;;;22.20;35.30;;;;;;5077940;28;20424;-64
2021/12/08 08:43:53;;;;;;;;;;;22.20;35.30;;;;;;5083110;28;20253;-64
2021/12/08 08:46:21;;;;;;;;;;;22.20;35.30;;;;;;5076069;28;20308;-63
2021/12/08 08:48:51;;;;;;;;;;;22.20;35.30;;;;;;5086472;28;19916;-63
2021/12/08 08:51:19;;;;;;;;;;;22.20;35.30;;;;;;5082679;28;19920;-63
2021/12/08 08:53:45;;;;;;;;;;;22.20;35.30;;;;;;5076314;28;19978;-63
2021/12/08 08:56:12;;;;;;;;;;;22.20;35.30;;;;;;5072401;28;19944;-63
2021/12/08 08:58:38;;;;;;;;;;;22.20;35.30;;;;;;5088151;28;19919;-61
2021/12/08 09:01:15;;;;;;;;;;;22.20;35.30;;;;;;5086031;28;19917;-63
2021/12/08 09:03:42;;;;;;;;;;;22.20;35.30;;;;;;5082184;28;19916;-63
2021/12/08 09:06:09;;;;;;;;;;;22.20;35.30;;;;;;5080381;28;19912;-64
2021/12/08 09:08:34;;;;;;;;;;;22.30;35.40;;;;;;5076455;28;19970;-64
2021/12/08 09:11:06;;;;;;;;;;;22.30;35.40;;;;;;5084171;28;20332;-64
2021/12/08 09:13:46;;;;;;;;;;;22.30;35.40;;;;;;5087680;28;19976;-64
2021/12/08 09:16:15;;;;;;;;;;;22.30;35.40;;;;;;5089931;28;19913;-64
2021/12/08 09:18:49;;;;;;;;;;;22.30;35.40;;;;;;5084443;28;19923;-64
2021/12/08 09:21:20;;;;;;;;;;;22.30;35.40;;;;;;5095208;28;19979;-63
2021/12/08 09:23:49;;;;;;;;;;;22.30;35.70;;;;;;5074284;28;19923;-63
2021/12/08 09:26:15;;;;;;;;;;;22.30;35.50;;;;;;5079032;28;20273;-64
2021/12/08 09:29:01;;;;;;;;;;;22.30;35.70;;;;;;5088566;28;20277;-63
2021/12/08 09:31:54;;;;;;;;;;;22.30;35.50;;;;;;5083711;28;19920;-64
2021/12/08 09:34:24;;;;;;;;;;;22.30;35.50;;;;;;5074237;28;19917;-64
2021/12/08 09:37:10;;;;;;;;;;;22.30;35.60;;;;;;5079892;28;19912;-64
2021/12/08 09:39:46;;;;;;;;;;;22.30;35.50;;;;;;5086392;28;19915;-64
2021/12/08 09:42:14;;;;;;;;;;;22.30;35.50;;;;;;5074426;28;19912;-63
2021/12/08 09:44:44;;;;;;;;;;;22.30;35.70;;;;;;5080969;28;19923;-64
2021/12/08 09:47:09;;;;;;;;;;;22.30;35.70;;;;;;5088439;28;20395;-63
2021/12/08 09:49:35;;;;;;;;;;;22.30;35.70;;;;;;5067772;28;19916;-63
2021/12/08 09:52:01;;;;;;;;;;;22.30;35.50;;;;;;5079087;28;19916;-63
2021/12/08 09:54:26;;;;;;;;;;;22.30;35.50;;;;;;5079840;28;19919;-63
2021/12/08 09:56:53;;;;;;;;;;;22.30;35.50;;;;;;5072626;28;20434;-63
2021/12/08 09:59:19;;;;;;;;;;;22.30;35.50;;;;;;5087518;28;19912;-63
2021/12/08 10:01:45;;;;;;;;;;;22.30;35.70;;;;;;5080551;28;19995;-64
2021/12/08 10:04:11;;;;;;;;;;;22.30;35.70;;;;;;5074274;28;20327;-63
2021/12/08 10:06:37;;;;;;;;;;;22.30;35.70;;;;;;5086878;28;19912;-64
2021/12/08 10:09:03;;;;;;;;;;;22.30;35.70;;;;;;5076133;28;20360;-64
2021/12/08 10:11:29;;;;;;;;;;;22.30;35.80;;;;;;5088768;28;19963;-64
2021/12/08 10:13:54;;;;;;;;;;;22.30;36.10;;;;;;5076861;28;19927;-64
2021/12/08 10:16:20;;;;;;;;;;;22.30;36.10;;;;;;5072754;28;20392;-63
2021/12/08 10:18:45;;;;;;;;;;;22.40;36.10;;;;;;5079685;28;19915;-64
2021/12/08 10:21:11;;;;;;;;;;;22.40;36.10;;;;;;5088769;28;20384;-64
2021/12/08 10:23:37;;;;;;;;;;;22.40;36.00;;;;;;5074487;28;19921;-64
2021/12/08 10:26:07;;;;;;;;;;;22.40;35.90;;;;;;5071606;28;19946;-63
2021/12/08 10:28:32;;;;;;;;;;;22.50;36.10;;;;;;5073091;28;20388;-64
2021/12/08 10:31:13;;;;;;;;;;;22.50;36.00;;;;;;5081248;28;20053;-63
2021/12/08 10:34:30;;;;;;;;;;;22.50;36.00;;;;;;5079770;28;19932;-64
2021/12/08 10:36:45;;;;;;;;;;;22.50;36.00;;;;;;5071012;28;19912;-65
2021/12/08 10:39:18;;;;;;;;;;;22.50;36.10;;;;;;5079784;28;19916;-63
2021/12/08 10:42:02;;;;;;;;;;;22.50;36.00;;;;;;5085710;28;19953;-63
2021/12/08 10:44:44;;;;;;;;;;;22.60;35.90;;;;;;5089189;28;20015;-63
2021/12/08 10:47:10;;;;;;;;;;;22.60;35.90;;;;;;5084366;28;19978;-63
2021/12/08 10:54:49;;;;;;;;;;;22.60;36.10;;;;;;5083975;28;19954;-64
2021/12/08 10:57:19;;;;;;;;;;;22.60;36.20;;;;;;5089180;28;19919;-63
2021/12/08 10:59:55;;;;;;;;;;;22.60;36.20;;;;;;5098865;28;19913;-64
2021/12/08 11:02:37;;;;;;;;;;;22.60;36.20;;;;;;5086592;28;19920;-64
2021/12/08 11:05:03;;;;;;;;;;;22.60;36.30;;;;;;5096189;28;19917;-64
2021/12/08 11:07:29;;;;;;;;;;;22.60;36.20;;;;;;5076371;28;19916;-63
2021/12/08 11:09:55;;;;;;;;;;;22.60;36.30;;;;;;5082706;28;19916;-64
2021/12/08 11:12:21;;;;;;;;;;;22.60;36.40;;;;;;5074202;28;19924;-65
2021/12/08 11:14:48;;;;;;;;;;;22.60;36.40;;;;;;5085515;28;19970;-64
2021/12/08 11:17:24;;;;;;;;;;;22.60;36.40;;;;;;5090459;28;19912;-64
2021/12/08 11:19:50;;;;;;;;;;;22.60;36.30;;;;;;5088668;28;19912;-64
2021/12/08 11:22:16;;;;;;;;;;;22.70;36.40;;;;;;5081331;28;19916;-63
2021/12/08 11:24:49;;;;;;;;;;;22.70;36.40;;;;;;5088283;28;19920;-63
2021/12/08 11:27:27;;;;;;;;;;;22.70;36.50;;;;;;5078775;28;19917;-63
2021/12/08 11:29:52;;;;;;;;;;;22.70;36.50;;;;;;5072769;28;19916;-63
2021/12/08 11:32:22;;;;;;;;;;;22.60;36.40;;;;;;5074267;28;19962;-63
2021/12/08 11:34:48;;;;;;;;;;;22.70;36.50;;;;;;5079733;28;19923;-63
2021/12/08 11:37:14;;;;;;;;;;;22.70;36.40;;;;;;5087962;28;19916;-63
2021/12/08 11:39:44;;;;;;;;;;;22.70;36.50;;;;;;5066601;28;19916;-63
2021/12/08 11:42:16;;;;;;;;;;;22.70;36.50;;;;;;5071292;28;19916;-64
2021/12/08 11:44:45;;;;;;;;;;;22.70;36.50;;;;;;5084336;28;19912;-63
2021/12/08 11:47:11;;;;;;;;;;;22.70;36.60;;;;;;5075629;28;19931;-65
2021/12/08 11:49:41;;;;;;;;;;;22.70;36.70;;;;;;5069183;28;19932;-64
2021/12/08 11:52:10;;;;;;;;;;;22.70;36.40;;;;;;5081128;28;19916;-63
2021/12/08 11:54:37;;;;;;;;;;;22.70;36.50;;;;;;5078302;28;19919;-63
2021/12/08 11:57:21;;;;;;;;;;;22.70;36.50;;;;;;5087266;28;19927;-64
2021/12/08 11:59:53;;;;;;;;;;;22.70;36.50;;;;;;5098171;28;19912;-64
2021/12/08 12:02:21;;;;;;;;;;;22.70;36.50;;;;;;5069589;28;20288;-64
2021/12/08 12:04:48;;;;;;;;;;;22.80;36.60;;;;;;5074867;28;20283;-63
2021/12/08 12:07:13;;;;;;;;;;;22.80;36.60;;;;;;5075504;28;20538;-63
2021/12/08 12:09:39;;;;;;;;;;;22.80;36.70;;;;;;5071648;28;19995;-64
2021/12/08 12:12:04;;;;;;;;;;;22.80;36.60;;;;;;5083417;28;19923;-65
2021/12/08 12:14:30;;;;;;;;;;;22.80;36.60;;;;;;5099503;28;19920;-64
2021/12/08 12:16:55;;;;;;;;;;;22.70;36.60;;;;;;5088117;28;19924;-63
2021/12/08 12:19:22;;;;;;;;;;;22.80;36.70;;;;;;5069346;28;19912;-63
2021/12/08 12:22:02;;;;;;;;;;;22.80;36.60;;;;;;5067513;28;19948;-63
2021/12/08 12:24:46;;;;;;;;;;;22.80;36.70;;;;;;5084198;28;19912;-63
2021/12/08 12:27:17;;;;;;;;;;;22.80;36.60;;;;;;5085481;28;19999;-64
2021/12/08 12:29:52;;;;;;;;;;;22.90;36.70;;;;;;5083358;28;20404;-63
2021/12/08 12:32:47;;;;;;;;;;;22.90;36.60;;;;;;5080637;28;19917;-64
2021/12/08 12:35:17;;;;;;;;;;;22.90;36.60;;;;;;5066212;28;20318;-63
2021/12/08 12:37:43;;;;;;;;;;;22.90;36.70;;;;;;5083356;28;19912;-63
2021/12/08 12:40:13;;;;;;;;;;;22.80;36.70;;;;;;5081469;28;20019;-63
2021/12/08 12:42:46;;;;;;;;;;;22.90;36.80;;;;;;5082721;28;19935;-64
2021/12/08 12:45:14;;;;;;;;;;;22.90;36.80;;;;;;5078543;28;19920;-63
2021/12/08 12:47:39;;;;;;;;;;;22.90;36.80;;;;;;5079005;28;19924;-63
2021/12/08 12:50:09;;;;;;;;;;;22.80;36.70;;;;;;5086653;28;19917;-63
2021/12/08 12:52:36;;;;;;;;;;;22.90;36.80;;;;;;5075486;28;19939;-63
2021/12/08 12:55:20;;;;;;;;;;;22.90;36.80;;;;;;5079348;28;20292;-63
2021/12/08 12:58:03;;;;;;;;;;;22.80;36.80;;;;;;5093268;28;19916;-63
2021/12/08 13:00:36;;;;;;;;;;;22.80;36.90;;;;;;5089363;28;19922;-63
2021/12/08 13:03:02;;;;;;;;;;;22.90;37.10;;;;;;5076403;28;19913;-63
2021/12/08 13:05:46;;;;;;;;;;;22.90;37.00;;;;;;5076776;28;19919;-63
2021/12/08 13:08:12;;;;;;;;;;;22.90;37.10;;;;;;5092200;28;19923;-63
2021/12/08 13:10:39;;;;;;;;;;;22.90;37.10;;;;;;5093536;28;19912;-63
2021/12/08 13:13:12;;;;;;;;;;;22.90;37.20;;;;;;5079016;28;19929;-63
2021/12/08 13:15:38;;;;;;;;;;;22.90;37.10;;;;;;5075948;28;20580;-64
2021/12/08 13:18:04;;;;;;;;;;;22.90;37.10;;;;;;5087492;28;19912;-63
2021/12/08 13:20:32;;;;;;;;;;;22.90;37.10;;;;;;5085478;28;19919;-63
2021/12/08 13:23:00;;;;;;;;;;;23.00;37.10;;;;;;5084958;28;19912;-63
2021/12/08 13:25:31;;;;;;;;;;;23.00;37.30;;;;;;5090528;28;20264;-63
2021/12/08 13:28:17;;;;;;;;;;;23.00;37.10;;;;;;5083330;28;19913;-63
2021/12/08 13:30:43;;;;;;;;;;;23.00;37.20;;;;;;5078554;28;19916;-64
2021/12/08 13:33:29;;;;;;;;;;;23.00;37.20;;;;;;5061064;28;19978;-63
2021/12/08 13:35:55;;;;;;;;;;;23.00;37.30;;;;;;5091728;28;19912;-63
2021/12/08 13:38:21;;;;;;;;;;;23.00;37.20;;;;;;5092049;28;19920;-62
2021/12/08 13:40:48;;;;;;;;;;;23.00;37.30;;;;;;5091799;28;20437;-63
2021/12/08 13:43:32;;;;;;;;;;;23.00;37.30;;;;;;5090540;28;20798;-63
2021/12/08 13:45:57;;;;;;;;;;;23.00;37.20;;;;;;5087372;28;19912;-64
2021/12/08 13:48:24;;;;;;;;;;;23.00;37.30;;;;;;5076509;28;19912;-64
2021/12/08 13:50:49;;;;;;;;;;;23.00;37.30;;;;;;5089465;28;19912;-63
2021/12/08 13:53:16;;;;;;;;;;;23.00;37.40;;;;;;5087551;28;19923;-63
2021/12/08 13:55:53;;;;;;;;;;;23.00;37.40;;;;;;5080227;28;19984;-64
2021/12/08 13:58:19;;;;;;;;;;;23.00;37.30;;;;;;5087286;28;19913;-63
2021/12/08 14:00:48;;;;;;;;;;;23.00;37.20;;;;;;5074244;28;19974;-63
2021/12/08 14:03:18;;;;;;;;;;;23.00;37.30;;;;;;5078241;28;20417;-64
2021/12/08 14:05:45;;;;;;;;;;;23.00;37.30;;;;;;5074214;28;19916;-63
2021/12/08 14:08:18;;;;;;;;;;;23.00;37.20;;;;;;5093885;28;20715;-64
2021/12/08 14:10:44;;;;;;;;;;;23.00;37.30;;;;;;5075308;28;19916;-64
2021/12/08 14:13:11;;;;;;;;;;;23.00;37.30;;;;;;5082907;28;19959;-64
2021/12/08 14:15:36;;;;;;;;;;;23.00;37.20;;;;;;5083523;28;19912;-64
2021/12/08 14:18:14;;;;;;;;;;;23.00;37.30;;;;;;5080080;28;19926;-64
2021/12/08 14:20:39;;;;;;;;;;;23.00;37.30;;;;;;5077787;28;20034;-64
2021/12/08 14:23:05;;;;;;;;;;;23.00;37.30;;;;;;5078466;28;19963;-64
2021/12/08 14:25:48;;;;;;;;;;;23.00;37.20;;;;;;5078052;28;20180;-64
2021/12/08 14:28:41;;;;;;;;;;;23.00;37.40;;;;;;5082821;28;19912;-64
2021/12/08 14:31:15;;;;;;;;;;;23.10;37.50;;;;;;5086427;28;19913;-64
2021/12/08 14:33:51;;;;;;;;;;;23.00;37.50;;;;;;5082381;28;19924;-64
2021/12/08 14:36:16;;;;;;;;;;;23.10;37.60;;;;;;5084269;28;19977;-64
2021/12/08 14:38:51;;;;;;;;;;;23.00;37.50;;;;;;5080386;28;19934;-64
2021/12/08 14:41:18;;;;;;;;;;;23.10;37.70;;;;;;5077419;28;19913;-64
2021/12/08 14:43:43;;;;;;;;;;;23.00;37.60;;;;;;5076588;28;20292;-64
2021/12/08 14:46:10;;;;;;;;;;;23.10;37.60;;;;;;5078762;28;19916;-64
2021/12/08 14:48:35;;;;;;;;;;;23.10;37.50;;;;;;5086930;28;19916;-64
2021/12/08 14:51:00;;;;;;;;;;;23.10;37.50;;;;;;5081444;28;20006;-64
2021/12/08 14:53:32;;;;;;;;;;;23.10;37.70;;;;;;5078273;28;20380;-64
2021/12/08 14:56:06;;;;;;;;;;;23.10;37.50;;;;;;5083984;28;19919;-64
2021/12/08 14:58:31;;;;;;;;;;;23.10;37.40;;;;;;5091661;28;20412;-64
2021/12/08 15:00:57;;;;;;;;;;;23.10;37.50;;;;;;5091511;28;19916;-64
2021/12/08 15:03:22;;;;;;;;;;;23.10;37.40;;;;;;5079972;28;19958;-63
2021/12/08 15:05:49;;;;;;;;;;;23.10;37.50;;;;;;5079093;28;19920;-64
2021/12/08 15:08:16;;;;;;;;;;;23.10;37.20;;;;;;5080529;28;19917;-63
2021/12/08 15:10:41;;;;;;;;;;;23.10;37.30;;;;;;5082635;28;19912;-63